Gainesville, FL

5:06 PM EDT on May 30, 2015 (GMT -0400)
KC4MHH | | Change Station
CLOSE
Current Station
Personal Weather Station
Location: Gainesville, FL
Elevation: 168 ft
Nearby Weather Stations

Elev 168 ft 29.66 °N, 82.33 °W | Updated 18 seconds ago

Partly Cloudy
Partly Cloudy
88.2 °F
Feels Like 92 °F
N
0.0
Wind Variable Wind from NE
Gusts 5.5 mph

Today
High -- | Low -- °F
--% Chance of Precip.
Yesterday
High -- | Low -- °F
Precip. -- in
6:30 AM 8:24 PM
Waxing Gibbous, 92% visible
Pressure 30.02 in
Visibility 10.0 miles
Clouds Few 4700 ft
Mostly Cloudy 5500 ft
Overcast 10000 ft
Heat Index 92 °F
Dew Point 68 °F
Humidity 51%
Rainfall 0.00 in
Snow Depth Not available.
UV 2 out of 12
Pollen 4.10 out of 12
Air Quality Not available.
Flu Activity Sporadic
METAR KGNV 302053Z 08005KT 10SM FEW047 BKN055 OVC100 30/19 A3003 RMK AO2 SLP165 T03000189 56017 $

More Conditions Fewer Conditions

Pressure 30.02 in
Visibility 10.0 miles
Clouds Few 4700 ft
Mostly Cloudy 5500 ft
Overcast 10000 ft
Heat Index 92 °F
Dew Point 68 °F
Humidity 51%
Rainfall 0.00 in
Snow Depth Not available.
UV 2 out of 12
Pollen 4.10 out of 12
Air Quality Not available.
Flu Activity Sporadic
METAR KGNV 302053Z 08005KT 10SM FEW047 BKN055 OVC100 30/19 A3003 RMK AO2 SLP165 T03000189 56017 $

More Conditions Fewer Conditions

10-Day Weather Forecast

Almanac

Astronomy

May. 30, 2015 Rise Set
Actual Time
Civil Twilight
Nautical Twilight
Astronomical Twilight
Moon
Length of Visible Light
Length of Day
Tomorrow will be .
, % of the Moon is Illuminated

Today's Extremes

State Highs State Lows

Community

WunderPhotos

Upload Photos

1,825,598 photos uploaded!

WunderBlogs® & News

Nearby

Air Quality

  Air Quality AQ Index Pollutant
Not available.

Snow Depth

Station Depth Elevation

Earthquake Activity

City Distance Mag. Time & Date
Minimum magnitude displayed is 2.5.

Coastal Water Temperatures

Place Temperature

Stations

Nearby Weather Stations

Station Location Temp. Windchill Dew Point Humidity Wind Precip. Elev Updated Type